createdAt,value
2017-11-14T00:00:19.425Z,78.00
2017-11-14T00:02:46.902Z,78.20
2017-11-14T00:05:14.386Z,78.00
2017-11-14T00:07:41.842Z,77.80
2017-11-14T00:10:09.310Z,77.60
2017-11-14T00:12:36.766Z,77.40
2017-11-14T00:15:04.998Z,76.80
2017-11-14T00:17:32.456Z,76.80
2017-11-14T00:19:59.942Z,76.80
2017-11-14T00:22:27.420Z,76.60
2017-11-14T00:24:55.670Z,76.20
2017-11-14T00:27:23.146Z,76.10
2017-11-14T00:29:50.615Z,76.00
2017-11-14T00:32:18.097Z,76.00
2017-11-14T00:34:45.545Z,76.00
2017-11-14T00:37:13.793Z,76.10
2017-11-14T00:39:41.271Z,76.20
2017-11-14T00:42:08.884Z,76.10
2017-11-14T00:44:36.415Z,76.30
2017-11-14T00:47:03.877Z,76.60
2017-11-14T00:49:32.124Z,76.70
2017-11-14T00:51:59.611Z,76.80
2017-11-14T00:54:27.070Z,76.60
2017-11-14T00:56:54.577Z,76.50
2017-11-14T00:59:22.131Z,76.80
2017-11-14T01:01:49.623Z,76.60
2017-11-14T01:04:17.137Z,77.10
2017-11-14T01:06:44.812Z,76.80
2017-11-14T01:09:12.286Z,76.90
2017-11-14T01:11:39.781Z,77.00
2017-11-14T01:14:07.254Z,77.30
2017-11-14T01:16:34.733Z,77.70
2017-11-14T01:19:02.217Z,77.50
2017-11-14T01:21:29.744Z,77.80
2017-11-14T01:23:57.221Z,77.70
2017-11-14T01:26:24.719Z,77.70
2017-11-14T01:28:52.945Z,77.90
2017-11-14T01:31:20.432Z,77.80
2017-11-14T01:33:47.922Z,77.70
2017-11-14T01:36:15.461Z,78.00
2017-11-14T01:38:43.807Z,78.20
2017-11-14T01:41:11.280Z,78.30
2017-11-14T01:43:38.792Z,78.60
2017-11-14T01:46:06.270Z,78.80
2017-11-14T01:48:33.780Z,78.30
2017-11-14T01:51:01.257Z,78.20
2017-11-14T01:53:28.742Z,78.20
2017-11-14T01:55:56.214Z,78.40
2017-11-14T01:58:23.686Z,78.00
2017-11-14T02:00:51.211Z,77.80
2017-11-14T02:03:19.458Z,77.80
2017-11-14T02:05:46.942Z,77.80
2017-11-14T02:08:14.414Z,78.00
2017-11-14T02:10:41.890Z,77.90
2017-11-14T02:13:09.372Z,78.30
2017-11-14T02:15:36.874Z,78.10
2017-11-14T02:18:04.366Z,78.00
2017-11-14T02:20:31.844Z,77.80
2017-11-14T02:22:59.319Z,78.40
2017-11-14T02:25:26.794Z,78.40
2017-11-14T02:27:55.029Z,77.80
2017-11-14T02:30:23.314Z,77.80
2017-11-14T02:32:50.787Z,77.80
2017-11-14T02:35:18.275Z,78.20
2017-11-14T02:37:45.749Z,77.90
2017-11-14T02:40:13.381Z,78.20
2017-11-14T02:42:40.839Z,78.30
2017-11-14T02:45:08.388Z,78.00
2017-11-14T02:47:35.863Z,78.70
2017-11-14T02:50:03.318Z,78.60
2017-11-14T02:52:31.618Z,78.40
2017-11-14T02:54:59.084Z,78.40
2017-11-14T02:57:27.331Z,78.60
2017-11-14T02:59:54.787Z,78.20
2017-11-14T03:02:23.057Z,78.20
2017-11-14T03:04:50.626Z,78.20
2017-11-14T03:07:18.138Z,78.00
2017-11-14T03:09:45.612Z,78.80
2017-11-14T03:12:13.092Z,78.90
2017-11-14T03:14:40.661Z,78.50
2017-11-14T03:17:08.153Z,78.90
2017-11-14T03:19:35.692Z,78.80
2017-11-14T03:22:03.186Z,78.40
2017-11-14T03:24:30.652Z,78.40
2017-11-14T03:26:58.162Z,78.50
2017-11-14T03:29:25.634Z,78.40
2017-11-14T03:31:53.306Z,78.10
2017-11-14T03:34:20.899Z,78.40
2017-11-14T03:36:48.379Z,78.40
2017-11-14T03:39:16.668Z,78.10
2017-11-14T03:41:44.156Z,78.10
2017-11-14T03:44:12.395Z,79.40
2017-11-14T03:46:39.899Z,79.40
2017-11-14T03:49:07.376Z,79.80
2017-11-14T03:51:34.860Z,80.10
2017-11-14T03:54:02.326Z,79.70
2017-11-14T03:56:29.804Z,79.30
2017-11-14T03:58:57.283Z,79.40
2017-11-14T04:01:24.748Z,79.20
2017-11-14T04:03:52.231Z,79.00
2017-11-14T04:06:19.707Z,78.70
2017-11-14T04:08:47.200Z,78.80
2017-11-14T04:11:14.698Z,78.60
2017-11-14T04:13:42.243Z,78.50
2017-11-14T04:16:09.743Z,78.40
2017-11-14T04:18:37.220Z,78.50
2017-11-14T04:21:04.700Z,78.00
2017-11-14T04:23:32.235Z,78.00
2017-11-14T04:25:59.710Z,77.80
2017-11-14T04:28:27.191Z,77.60
2017-11-14T04:30:54.663Z,77.60
2017-11-14T04:33:22.338Z,77.60
2017-11-14T04:35:49.809Z,77.30
2017-11-14T04:38:17.346Z,77.10
2017-11-14T04:40:44.946Z,77.20
2017-11-14T04:43:12.416Z,77.00
2017-11-14T04:45:40.839Z,76.90
2017-11-14T04:48:09.089Z,77.20
2017-11-14T04:50:36.560Z,77.30
2017-11-14T04:53:04.147Z,77.20
2017-11-14T04:55:31.629Z,77.30
2017-11-14T04:57:59.158Z,77.70
2017-11-14T05:00:27.421Z,77.60
2017-11-14T05:02:54.904Z,77.70
2017-11-14T05:05:22.394Z,77.60
2017-11-14T05:07:49.861Z,77.40
2017-11-14T05:10:17.360Z,77.30
2017-11-14T05:12:44.844Z,77.30
2017-11-14T05:15:12.308Z,77.30
2017-11-14T05:17:39.796Z,77.20
2017-11-14T05:20:07.333Z,77.10
2017-11-14T05:22:34.800Z,77.40
2017-11-14T05:25:02.271Z,77.50
2017-11-14T05:27:29.749Z,77.40
2017-11-14T05:29:57.240Z,77.40
2017-11-14T05:32:24.861Z,77.50
2017-11-14T05:34:52.337Z,77.50
2017-11-14T05:37:20.594Z,78.20
2017-11-14T05:39:48.080Z,78.10
2017-11-14T05:42:15.555Z,77.70
2017-11-14T05:44:43.040Z,78.10
2017-11-14T05:47:10.516Z,77.90
2017-11-14T05:49:37.982Z,77.60
2017-11-14T05:52:05.472Z,77.70
2017-11-14T05:54:32.931Z,77.60
2017-11-14T05:57:01.296Z,77.60
2017-11-14T05:59:28.751Z,77.60
2017-11-14T06:01:56.206Z,77.40
2017-11-14T06:04:23.691Z,77.60
2017-11-14T06:06:51.159Z,77.80
2017-11-14T06:09:19.402Z,77.30
2017-11-14T06:11:46.937Z,77.30
2017-11-14T06:14:15.176Z,77.10
2017-11-14T06:16:42.673Z,77.80
2017-11-14T06:19:10.170Z,77.30
2017-11-14T06:21:37.644Z,77.30
2017-11-14T06:24:05.201Z,77.50
2017-11-14T06:26:32.682Z,76.80
2017-11-14T06:29:00.159Z,76.50
2017-11-14T06:31:27.628Z,76.30
2017-11-14T06:33:55.177Z,76.30
2017-11-14T06:36:22.674Z,76.80
2017-11-14T06:38:50.934Z,77.10
2017-11-14T06:41:18.447Z,77.10
2017-11-14T06:43:45.912Z,76.90
2017-11-14T06:46:13.377Z,77.40
2017-11-14T06:48:41.023Z,77.80
2017-11-14T06:51:09.290Z,77.70
2017-11-14T06:53:36.758Z,77.80
2017-11-14T06:56:04.401Z,77.40
2017-11-14T06:58:31.875Z,77.80
2017-11-14T07:01:00.140Z,77.20
2017-11-14T07:03:27.624Z,77.20
2017-11-14T07:05:55.098Z,76.60
2017-11-14T07:08:22.702Z,76.20
2017-11-14T07:10:50.219Z,76.10
2017-11-14T07:13:17.774Z,76.20
2017-11-14T07:15:45.580Z,76.60
2017-11-14T07:18:13.217Z,76.70
2017-11-14T07:20:40.675Z,76.20
2017-11-14T07:23:08.288Z,75.80
2017-11-14T07:25:35.848Z,75.80
2017-11-14T07:28:03.352Z,76.10
2017-11-14T07:30:30.929Z,76.40
2017-11-14T07:32:58.390Z,76.30
2017-11-14T07:35:25.941Z,75.60
2017-11-14T07:37:54.199Z,75.70
2017-11-14T07:40:21.716Z,75.80
2017-11-14T07:42:49.370Z,75.40
2017-11-14T07:45:16.909Z,74.90
2017-11-14T07:47:44.433Z,75.50
2017-11-14T07:50:12.051Z,75.70
2017-11-14T07:52:39.549Z,76.40
2017-11-14T07:55:08.031Z,75.30
2017-11-14T07:57:35.506Z,75.40
2017-11-14T08:00:03.001Z,75.10
2017-11-14T08:02:30.519Z,73.20
2017-11-14T08:04:58.760Z,70.80
2017-11-14T08:07:26.840Z,70.90
2017-11-14T08:09:54.338Z,70.30
2017-11-14T08:12:22.668Z,69.90
2017-11-14T08:14:50.138Z,70.10
2017-11-14T08:17:17.617Z,66.80
2017-11-14T08:19:45.144Z,66.30
2017-11-14T08:22:12.690Z,66.40
2017-11-14T08:24:40.217Z,66.30
2017-11-14T08:27:08.476Z,66.80
2017-11-14T08:29:35.936Z,66.80
2017-11-14T08:32:03.631Z,66.20
2017-11-14T08:34:31.166Z,66.60
2017-11-14T08:36:58.632Z,66.80
2017-11-14T08:39:26.149Z,67.10
2017-11-14T08:41:53.642Z,67.30
2017-11-14T08:44:21.306Z,66.70
2017-11-14T08:46:49.603Z,66.50
2017-11-14T08:49:17.087Z,66.40
2017-11-14T08:51:44.559Z,66.00
2017-11-14T08:54:12.118Z,64.70
2017-11-14T08:56:39.601Z,64.30
2017-11-14T08:59:07.192Z,63.50
2017-11-14T09:01:34.660Z,63.30
2017-11-14T09:04:02.149Z,62.60
2017-11-14T09:06:29.618Z,62.20
2017-11-14T09:08:57.647Z,61.70
2017-11-14T09:11:25.246Z,61.40
2017-11-14T09:13:53.481Z,60.70
2017-11-14T09:16:20.956Z,60.60
2017-11-14T09:18:48.434Z,61.50
2017-11-14T09:21:15.895Z,61.00
2017-11-14T09:23:44.306Z,58.50
2017-11-14T09:26:12.585Z,58.50
2017-11-14T09:28:40.046Z,58.60
2017-11-14T09:31:07.565Z,59.30
2017-11-14T09:33:36.024Z,59.30
2017-11-14T09:36:03.515Z,59.30
2017-11-14T09:38:31.084Z,59.00
2017-11-14T09:40:58.674Z,58.70
2017-11-14T09:43:26.190Z,58.30
2017-11-14T09:45:53.690Z,57.60
2017-11-14T09:48:21.923Z,57.30
2017-11-14T09:50:50.315Z,57.40
2017-11-14T09:53:17.900Z,57.90
2017-11-14T09:55:45.376Z,58.00
2017-11-14T09:58:12.862Z,57.60
2017-11-14T10:00:40.339Z,57.40
2017-11-14T10:03:07.870Z,57.50
2017-11-14T10:05:35.339Z,57.00
2017-11-14T10:08:02.832Z,57.30
2017-11-14T10:10:30.314Z,57.80
2017-11-14T10:12:57.921Z,57.60
2017-11-14T10:15:25.412Z,57.10
2017-11-14T10:17:53.034Z,57.50
2017-11-14T10:20:20.640Z,58.00
2017-11-14T10:22:48.121Z,58.60
2017-11-14T10:25:15.638Z,57.40
2017-11-14T10:27:43.139Z,57.50
2017-11-14T10:30:10.741Z,56.60
2017-11-14T10:32:38.281Z,55.80
2017-11-14T10:35:06.595Z,55.00
2017-11-14T10:37:34.087Z,55.40
2017-11-14T10:40:01.604Z,56.00
2017-11-14T10:42:29.083Z,56.50
2017-11-14T10:44:56.580Z,57.60
2017-11-14T10:47:24.065Z,58.20
2017-11-14T10:49:51.548Z,59.60
2017-11-14T10:52:19.171Z,60.50
2017-11-14T10:54:46.885Z,60.10
2017-11-14T10:57:14.432Z,59.80
2017-11-14T10:59:41.968Z,60.20
2017-11-14T11:02:09.488Z,60.10
2017-11-14T11:04:36.952Z,59.40
2017-11-14T11:07:04.543Z,58.40
2017-11-14T11:09:32.023Z,58.20
2017-11-14T11:11:59.525Z,57.80
2017-11-14T11:14:27.687Z,58.30
2017-11-14T11:16:55.164Z,58.70
2017-11-14T11:19:23.523Z,59.60
2017-11-14T11:21:51.118Z,59.80
2017-11-14T11:24:18.621Z,60.30
2017-11-14T11:26:46.280Z,60.70
2017-11-14T11:29:13.872Z,61.40
2017-11-14T11:31:41.438Z,61.30
2017-11-14T11:34:09.064Z,61.70
2017-11-14T11:36:36.550Z,62.50
2017-11-14T11:39:10.306Z,62.90
2017-11-14T11:41:37.819Z,64.20
2017-11-14T11:44:05.287Z,65.10
2017-11-14T11:46:33.102Z,65.40
2017-11-14T11:49:00.625Z,65.00
2017-11-14T11:51:28.089Z,65.20
2017-11-14T11:53:55.571Z,65.80
2017-11-14T11:56:23.083Z,66.80
2017-11-14T11:58:50.733Z,65.70
2017-11-14T12:01:18.274Z,66.20
2017-11-14T12:03:45.801Z,66.60
2017-11-14T12:06:13.285Z,65.80
2017-11-14T12:08:40.777Z,65.20
2017-11-14T12:11:08.261Z,65.10
2017-11-14T12:13:35.732Z,64.90
2017-11-14T12:16:03.200Z,65.60
2017-11-14T12:18:30.739Z,65.60
2017-11-14T12:20:59.239Z,63.30
2017-11-14T12:23:27.487Z,63.40
2017-11-14T12:25:55.244Z,63.60
2017-11-14T12:28:22.924Z,63.60
2017-11-14T12:30:50.394Z,64.30
2017-11-14T12:33:18.632Z,63.90
2017-11-14T12:35:46.131Z,64.00
2017-11-14T12:38:13.604Z,65.00
2017-11-14T12:40:41.088Z,66.10
2017-11-14T12:43:08.542Z,66.20
2017-11-14T12:45:36.035Z,65.60
2017-11-14T12:48:03.746Z,64.30
2017-11-14T12:50:31.236Z,61.90
2017-11-14T12:52:58.742Z,65.00
2017-11-14T12:55:26.212Z,66.00
2017-11-14T12:57:53.847Z,66.70
2017-11-14T13:00:21.316Z,66.20
2017-11-14T13:02:49.589Z,66.10
2017-11-14T13:05:17.076Z,66.00
2017-11-14T13:07:44.602Z,65.80
2017-11-14T13:10:13.180Z,68.00
2017-11-14T13:12:41.650Z,68.00
2017-11-14T13:15:09.133Z,68.00
2017-11-14T13:17:36.618Z,68.90
2017-11-14T13:20:04.470Z,68.70
2017-11-14T13:22:31.925Z,68.60
2017-11-14T13:25:00.208Z,68.80
2017-11-14T13:27:27.692Z,68.70
2017-11-14T13:29:55.167Z,68.00
2017-11-14T13:32:22.749Z,68.30
2017-11-14T13:34:50.204Z,69.00
2017-11-14T13:37:17.705Z,68.70
2017-11-14T13:39:45.197Z,68.60
2017-11-14T13:42:12.792Z,68.30
2017-11-14T13:44:40.245Z,68.20
2017-11-14T13:47:07.723Z,68.90
2017-11-14T13:49:35.208Z,68.90
2017-11-14T13:52:02.722Z,69.40
2017-11-14T13:54:30.326Z,69.60
2017-11-14T13:56:58.742Z,68.90
2017-11-14T13:59:27.037Z,69.20
2017-11-14T14:01:54.547Z,69.20
2017-11-14T14:04:22.047Z,69.60
2017-11-14T14:06:49.528Z,69.70
2017-11-14T14:09:16.998Z,70.20
2017-11-14T14:11:44.511Z,70.40
2017-11-14T14:14:11.991Z,70.70
2017-11-14T14:16:39.499Z,70.40
2017-11-14T14:19:06.979Z,70.20
2017-11-14T14:21:34.569Z,70.10
2017-11-14T14:24:02.062Z,70.80
2017-11-14T14:26:30.492Z,70.50
2017-11-14T14:28:58.009Z,70.60
2017-11-14T14:31:25.497Z,70.40
2017-11-14T14:33:53.952Z,70.20
2017-11-14T14:36:21.450Z,69.90
2017-11-14T14:38:49.776Z,71.00
2017-11-14T14:41:17.250Z,71.10
2017-11-14T14:43:44.838Z,71.50
2017-11-14T14:46:12.352Z,72.00
2017-11-14T14:48:39.906Z,71.80
2017-11-14T14:51:07.381Z,72.30
2017-11-14T14:53:34.894Z,72.50
2017-11-14T14:56:02.393Z,72.70
2017-11-14T14:58:29.949Z,72.80
2017-11-14T15:00:57.610Z,72.70
2017-11-14T15:03:25.125Z,72.30
2017-11-14T15:05:52.621Z,72.40
2017-11-14T15:08:20.122Z,73.30
2017-11-14T15:10:47.620Z,74.00
2017-11-14T15:13:16.817Z,74.00
2017-11-14T15:15:44.315Z,73.90
2017-11-14T15:18:11.859Z,73.80
2017-11-14T15:20:39.323Z,74.00
2017-11-14T15:23:06.791Z,74.40
2017-11-14T15:25:34.304Z,74.70
2017-11-14T15:28:01.839Z,74.90
2017-11-14T15:30:29.376Z,75.20
2017-11-14T15:32:56.876Z,75.20
2017-11-14T15:35:24.353Z,75.60
2017-11-14T15:37:51.957Z,75.70
2017-11-14T15:40:19.516Z,75.80
2017-11-14T15:42:47.055Z,75.90
2017-11-14T15:45:14.613Z,76.10
2017-11-14T15:47:42.932Z,76.00
2017-11-14T15:50:11.169Z,75.90
2017-11-14T15:52:38.649Z,76.00
2017-11-14T15:55:06.147Z,76.30
2017-11-14T15:57:33.639Z,76.20
2017-11-14T16:00:01.122Z,75.80
2017-11-14T16:02:28.720Z,76.30
2017-11-14T16:04:56.186Z,75.50
2017-11-14T16:07:23.660Z,75.70
2017-11-14T16:09:51.146Z,75.60
2017-11-14T16:12:18.644Z,75.80
2017-11-14T16:14:46.435Z,75.80
2017-11-14T16:17:13.931Z,76.00
2017-11-14T16:19:41.523Z,76.70
2017-11-14T16:22:09.795Z,77.20
2017-11-14T16:24:37.440Z,77.30
2017-11-14T16:27:04.994Z,77.10
2017-11-14T16:29:32.581Z,77.10
2017-11-14T16:32:00.967Z,76.30
2017-11-14T16:34:28.448Z,76.40
2017-11-14T16:36:55.956Z,76.00
2017-11-14T16:39:24.225Z,75.90
2017-11-14T16:41:51.788Z,75.90
2017-11-14T16:44:19.419Z,75.80
2017-11-14T16:46:47.003Z,75.70
2017-11-14T16:49:14.499Z,76.00
2017-11-14T16:51:42.907Z,75.90
2017-11-14T16:54:11.164Z,75.10
2017-11-14T16:56:38.635Z,75.10
2017-11-14T16:59:06.195Z,74.70
2017-11-14T17:01:33.673Z,74.60
2017-11-14T17:04:01.385Z,74.70
2017-11-14T17:06:28.864Z,74.60
2017-11-14T17:08:56.376Z,75.30
2017-11-14T17:11:23.848Z,76.00
2017-11-14T17:13:51.331Z,76.60
2017-11-14T17:16:18.930Z,77.10
2017-11-14T17:18:46.443Z,77.90
2017-11-14T17:21:14.689Z,78.20
2017-11-14T17:23:42.177Z,78.20
2017-11-14T17:26:09.700Z,79.70
2017-11-14T17:28:37.201Z,79.70
2017-11-14T17:31:04.703Z,80.00
2017-11-14T17:33:32.185Z,79.50
2017-11-14T17:35:59.667Z,79.20
2017-11-14T17:38:27.249Z,79.40
2017-11-14T17:40:54.790Z,79.30
2017-11-14T17:43:22.310Z,78.50
2017-11-14T17:45:49.969Z,78.40
2017-11-14T17:48:18.346Z,78.10
2017-11-14T17:50:45.970Z,78.10
2017-11-14T17:53:14.290Z,77.90
2017-11-14T17:55:42.578Z,78.10
2017-11-14T17:58:10.110Z,78.00
2017-11-14T18:00:38.403Z,77.10
2017-11-14T18:03:05.912Z,77.30
2017-11-14T18:05:33.561Z,77.30
2017-11-14T18:08:01.053Z,78.40
2017-11-14T18:10:28.519Z,79.00
2017-11-14T18:12:55.998Z,79.40
2017-11-14T18:15:23.559Z,79.80
2017-11-14T18:17:51.807Z,78.80
2017-11-14T18:20:19.463Z,78.70
2017-11-14T18:22:47.737Z,78.10
2017-11-14T18:25:15.230Z,78.20
2017-11-14T18:27:43.502Z,77.50
2017-11-14T18:30:10.978Z,77.50
2017-11-14T18:32:38.483Z,77.70
2017-11-14T18:35:05.965Z,78.50
2017-11-14T18:37:33.602Z,78.30
2017-11-14T18:40:01.088Z,79.10
2017-11-14T18:42:28.565Z,79.80
2017-11-14T18:44:56.309Z,79.50
2017-11-14T18:47:23.789Z,80.20
2017-11-14T18:49:51.278Z,80.40
2017-11-14T18:52:19.652Z,79.40
2017-11-14T18:54:47.120Z,79.40
2017-11-14T18:57:14.612Z,79.10
2017-11-14T18:59:42.113Z,79.30
2017-11-14T19:02:09.588Z,78.90
2017-11-14T19:04:37.287Z,78.00
2017-11-14T19:07:04.809Z,78.00
2017-11-14T19:09:32.364Z,78.40
2017-11-14T19:11:59.864Z,78.00
2017-11-14T19:14:28.104Z,77.80
2017-11-14T19:16:55.606Z,77.80
2017-11-14T19:19:23.659Z,77.90
2017-11-14T19:21:51.225Z,77.70
2017-11-14T19:24:18.834Z,77.80
2017-11-14T19:26:46.294Z,77.50
2017-11-14T19:29:14.566Z,76.30
2017-11-14T19:31:42.422Z,76.40
2017-11-14T19:34:09.939Z,76.30
2017-11-14T19:36:38.242Z,76.00
2017-11-14T19:39:05.756Z,75.60
2017-11-14T19:41:34.046Z,76.20
2017-11-14T19:44:01.569Z,76.60
2017-11-14T19:46:29.069Z,75.80
2017-11-14T19:48:56.830Z,75.60
2017-11-14T19:51:24.313Z,75.60
2017-11-14T19:53:51.854Z,75.30
2017-11-14T19:56:19.414Z,74.90
2017-11-14T19:58:47.019Z,75.50
2017-11-14T20:01:15.332Z,75.60
2017-11-14T20:03:42.821Z,75.60
2017-11-14T20:06:10.410Z,75.90
2017-11-14T20:08:37.908Z,76.60
2017-11-14T20:11:06.165Z,77.10
2017-11-14T20:13:33.643Z,77.20
2017-11-14T20:16:01.161Z,77.40
2017-11-14T20:18:28.711Z,77.90
2017-11-14T20:20:56.371Z,77.50
2017-11-14T20:23:23.860Z,77.10
2017-11-14T20:25:51.378Z,77.10
2017-11-14T20:28:19.056Z,77.30
2017-11-14T20:30:47.357Z,77.50
2017-11-14T20:33:14.863Z,77.60
2017-11-14T20:35:42.351Z,77.60
2017-11-14T20:38:09.824Z,77.50
2017-11-14T20:40:37.343Z,77.80
2017-11-14T20:43:05.636Z,78.10
2017-11-14T20:45:33.896Z,78.00
2017-11-14T20:48:01.484Z,77.90
2017-11-14T20:50:28.943Z,78.50
2017-11-14T20:52:56.425Z,78.30
2017-11-14T20:55:23.957Z,77.80
2017-11-14T20:57:52.231Z,78.10
2017-11-14T21:00:19.798Z,78.20
2017-11-14T21:02:47.273Z,77.90
2017-11-14T21:05:14.794Z,77.70
2017-11-14T21:07:42.457Z,77.10
2017-11-14T21:10:09.974Z,77.00
2017-11-14T21:12:37.442Z,76.40
2017-11-14T21:15:04.973Z,76.10
2017-11-14T21:17:32.432Z,75.70
2017-11-14T21:20:00.665Z,76.00
2017-11-14T21:22:28.217Z,76.00
2017-11-14T21:24:55.754Z,75.10
2017-11-14T21:27:23.770Z,75.10
2017-11-14T21:29:51.252Z,74.50
2017-11-14T21:32:18.761Z,74.20
2017-11-14T21:34:47.030Z,73.80
2017-11-14T21:37:14.558Z,73.90
2017-11-14T21:39:42.093Z,74.00
2017-11-14T21:42:09.578Z,74.40
2017-11-14T21:44:37.114Z,74.40
2017-11-14T21:47:04.628Z,74.20
2017-11-14T21:49:32.119Z,74.20
2017-11-14T21:51:59.638Z,73.70
2017-11-14T21:54:27.120Z,73.30
2017-11-14T21:56:54.644Z,73.20
2017-11-14T21:59:22.128Z,72.20
2017-11-14T22:01:49.603Z,72.10
2017-11-14T22:04:17.956Z,71.10
2017-11-14T22:06:46.356Z,71.40
2017-11-14T22:09:13.832Z,70.80
2017-11-14T22:11:41.300Z,71.10
2017-11-14T22:14:08.766Z,71.00
2017-11-14T22:16:36.284Z,71.30
2017-11-14T22:19:03.813Z,70.80
2017-11-14T22:21:32.035Z,70.90
2017-11-14T22:23:59.527Z,70.80
2017-11-14T22:26:27.139Z,70.40
2017-11-14T22:28:54.687Z,71.20
2017-11-14T22:31:22.194Z,71.50
2017-11-14T22:33:49.654Z,71.90
2017-11-14T22:36:17.143Z,71.60
2017-11-14T22:38:44.691Z,71.70
2017-11-14T22:41:12.950Z,71.30
2017-11-14T22:43:40.604Z,71.30
2017-11-14T22:46:08.085Z,71.30
2017-11-14T22:48:35.613Z,71.30
2017-11-14T22:51:03.091Z,71.50
2017-11-14T22:53:30.593Z,72.10
2017-11-14T22:55:58.156Z,72.00
2017-11-14T22:58:25.638Z,72.00
2017-11-14T23:00:53.126Z,72.10
2017-11-14T23:03:20.597Z,72.40
2017-11-14T23:05:48.165Z,71.90
2017-11-14T23:08:15.662Z,71.80
2017-11-14T23:10:43.126Z,72.20
2017-11-14T23:13:10.582Z,71.70
2017-11-14T23:15:38.159Z,71.70
2017-11-14T23:18:06.393Z,71.00
2017-11-14T23:20:33.905Z,71.20
2017-11-14T23:23:01.389Z,71.10
2017-11-14T23:25:28.852Z,71.10
2017-11-14T23:27:56.324Z,71.10
2017-11-14T23:30:23.785Z,71.30
2017-11-14T23:32:52.018Z,71.50
2017-11-14T23:35:19.563Z,71.50
2017-11-14T23:37:47.977Z,71.90
2017-11-14T23:40:15.488Z,72.00
2017-11-14T23:42:43.024Z,72.30
2017-11-14T23:45:10.483Z,72.60
2017-11-14T23:47:37.963Z,73.50
2017-11-14T23:50:05.437Z,73.70
2017-11-14T23:52:32.943Z,74.10
2017-11-14T23:55:01.213Z,74.40
2017-11-14T23:57:28.733Z,74.40
2017-11-14T23:59:56.224Z,74.70
